Flood From: 22-02-2018 16:00 Until: 23-02-2018 16:00 warning for: Flood Level: Yellow info button

Although rather usual in this region, locally or potentially dangerous phenomena are expected. (such as local winds, summer thunderstorms, rising streams or high waves) Be aware and pay attention to the latest weather updates, especially if you carry out activities exposed to weather or close to a stream or shoreline. 


Meteo18 Weather Cam more information Meteo18 Weather Cam


Thunder radar more information blitzortung!


Rain radar more information rain snow radar


Visit our other weather sites:

Template documentation
and downloads

And another site



Weather Underground History page Text

Daily Summary for April 28, 2016 Units:  Metric    English   Both
« Previous Day
Next Day »
Daily Weekly Monthly Yearly Custom
  High: Low: Average:
Temperature: -17.8 °C -17 °C -13.8 °C
Dew Point: -17.8 °C -17.8 °C -16.4 °C
Humidity: Humidity % 43 % 75 %
Wind Speed: 0 km/h 0 km/h 0.8 km/h
Wind Gust: 0 km/h - -
Wind:- - ESE
Pressure: 0 hPa 34327.3 hPa -
Precipitation: 7.62 mm    
Historical Graphs
 
 
Tabular Data for April 28, 2016
Time Temperature Dew Point Pressure Wind Wind Speed Wind Gust Humidity Rainfall Rate (Hourly)
-17.8 °C -17.8 °C 0 hPa Calm     Humidity % 0 mm
00:02 -16.9 °C -17.7 °C 34327.3 hPa Calm     90 % 0 mm
00:12 -16.9 °C -17.8 °C 34337.4 hPa Calm     90 % 0 mm
00:17 -17 °C -17.7 °C 34337.4 hPa Calm     91 % 0 mm
00:22 -16.9 °C -17.6 °C 34337.4 hPa Calm     91 % 0 mm
00:27 -16.9 °C -17.7 °C 34337.4 hPa Calm     91 % 0 mm
00:32 -17 °C -17.7 °C 34337.4 hPa Calm     92 % 0 mm
00:37 -16.9 °C -17.6 °C 34337.4 hPa Calm     92 % 0 mm
00:42 -16.8 °C -17.5 °C 34337.4 hPa Calm     92 % 0 mm
00:57 -17 °C -17.7 °C 34337.4 hPa Calm   2.6 km/h 91 % 0 mm
01:02 -17 °C -17.7 °C 34337.4 hPa Calm   2.6 km/h 92 % 0 mm
01:07 -17 °C -17.7 °C 34337.4 hPa Calm   2.6 km/h 92 % 0 mm
01:12 -17 °C -17.7 °C 34337.4 hPa Calm   2.6 km/h 92 % 0 mm
01:17 -16.9 °C -17.4 °C 34337.4 hPa Calm     93 % 0 mm
01:22 -16.8 °C -17.4 °C 34337.4 hPa Calm     93 % 0 mm
01:27 -16.8 °C -17.3 °C 34337.4 hPa Calm     93 % 0 mm
01:32 -16.7 °C -17.3 °C 34337.4 hPa Calm     93 % 0 mm
01:37 -16.7 °C -17.2 °C 34337.4 hPa Calm     93 % 0 mm
01:42 -16.6 °C -17.2 °C 34337.4 hPa Calm     93 % 0 mm
01:47 -16.6 °C -17.1 °C 34337.4 hPa Calm   2.6 km/h 93 % 0 mm
01:52 -16.5 °C -17.1 °C 34337.4 hPa Calm   2.6 km/h 93 % 0 mm
01:57 -16.4 °C -17.1 °C 34337.4 hPa Calm   2.6 km/h 92 % 0 mm
02:02 -16.4 °C -17.1 °C 34337.4 hPa Calm   2.6 km/h 92 % 0 mm
02:07 -16.3 °C -17 °C 34337.4 hPa Calm   2.6 km/h 92 % 0 mm
02:12 -16.3 °C -16.9 °C 34337.4 hPa Calm   2.6 km/h 92 % 0 mm
02:17 -16.3 °C -16.9 °C 34337.4 hPa Calm     92 % 0 mm
02:22 -16.2 °C -16.9 °C 34337.4 hPa Calm     92 % 0 mm
02:32 -16.2 °C -16.8 °C 34337.4 hPa Calm     92 % 0 mm
02:37 -16.2 °C -16.8 °C 34337.4 hPa Calm     92 % 0 mm
02:42 -16.2 °C -16.8 °C 34337.4 hPa Calm     92 % 0 mm
02:47 -16.2 °C -16.8 °C 34337.4 hPa Calm     92 % 0 mm
02:52 -16.2 °C -16.8 °C 34337.4 hPa Calm     92 % 0 mm
02:57 -16.2 °C -16.8 °C 34347.6 hPa Calm     92 % 0 mm
03:07 -16.1 °C -16.7 °C 34347.6 hPa Calm     92 % 0 mm
03:12 -16 °C -16.7 °C 34347.6 hPa Calm     92 % 0 mm
03:17 -15.9 °C -16.6 °C 34337.4 hPa Calm     92 % 0 mm
03:22 -15.9 °C -16.6 °C 34337.4 hPa Calm     92 % 0 mm
03:32 -15.9 °C -16.4 °C 34347.6 hPa Calm     93 % 0 mm
03:37 -15.8 °C -16.4 °C 34347.6 hPa Calm     93 % 0 mm
03:42 -15.9 °C -16.4 °C 34347.6 hPa Calm     93 % 0 mm
03:47 -15.9 °C -16.4 °C 34347.6 hPa Calm     93 % 0 mm
03:52 -15.9 °C -16.6 °C 34337.4 hPa Calm     92 % 0 mm
03:57 -15.9 °C -16.6 °C 34337.4 hPa Calm     92 % 0 mm
04:02 -15.9 °C -16.6 °C 34337.4 hPa Calm     92 % 0 mm
04:12 -16 °C -16.6 °C 34337.4 hPa Calm     93 % 0 mm
04:17 -16.1 °C -16.6 °C 34337.4 hPa Calm     93 % 0 mm
04:22 -16.1 °C -16.7 °C 34337.4 hPa Calm     93 % 0 mm
04:27 -16.1 °C -16.7 °C 34347.6 hPa Calm     93 % 0 mm
04:32 -16.1 °C -16.6 °C 34337.4 hPa Calm     94 % 0 mm
04:37 -16.1 °C -16.6 °C 34337.4 hPa Calm     94 % 0 mm
04:42 -16.1 °C -16.6 °C 34347.6 hPa Calm     94 % 0 mm
04:47 -16.1 °C -16.6 °C 34337.4 hPa Calm     94 % 0 mm
04:52 -16.1 °C -16.6 °C 34347.6 hPa Calm     94 % 0 mm
04:57 -16.1 °C -16.6 °C 34337.4 hPa Calm     94 % 0 mm
05:02 -16.1 °C -16.6 °C 34337.4 hPa Calm     94 % 0 mm
05:07 -16.1 °C -16.6 °C 34347.6 hPa Calm     94 % 0 mm
05:12 -16.1 °C -16.6 °C 34347.6 hPa Calm     94 % 0 mm
05:17 -16.1 °C -16.6 °C 34347.6 hPa Calm     94 % 0 mm
05:22 -16.1 °C -16.4 °C 34347.6 hPa Calm     95 % 0 mm
05:32 -16 °C -16.4 °C 34347.6 hPa Calm   2.6 km/h 95 % 0 mm
05:42 -15.9 °C -16.4 °C 34347.6 hPa Calm   2.6 km/h 94 % 0 mm
05:52 -15.8 °C -16.4 °C 34347.6 hPa Calm   2.6 km/h 93 % 0 mm
05:57 -15.8 °C -16.4 °C 34347.6 hPa Calm   2.6 km/h 93 % 0 mm
06:02 -15.8 °C -16.3 °C 34347.6 hPa Calm   2.6 km/h 93 % 0 mm
06:07 -15.8 °C -16.4 °C 34347.6 hPa Calm     93 % 0 mm
06:12 -15.9 °C -16.5 °C 34347.6 hPa Calm     93 % 0 mm
06:17 -16 °C -16.6 °C 34347.6 hPa Calm     93 % 0 mm
06:22 -16.1 °C -16.7 °C 34347.6 hPa Calm     93 % 0 mm
06:32 -16.2 °C -16.7 °C 34347.6 hPa Calm     93 % 0 mm
06:42 -16.1 °C -16.6 °C 34347.6 hPa Calm     94 % 0 mm
06:52 -16.1 °C -16.6 °C 34361.1 hPa Calm     94 % 0 mm
06:57 -16.1 °C -16.6 °C 34361.1 hPa Calm     94 % 0 mm
07:02 -16.2 °C -16.7 °C 34361.1 hPa Calm     94 % 0 mm
07:07 -16.2 °C -16.7 °C 34361.1 hPa Calm     94 % 0 mm
07:17 -16.4 °C -16.9 °C 34371.3 hPa Calm     94 % 0 mm
07:22 -16.6 °C -17.1 °C 34371.3 hPa Calm     94 % 0 mm
07:32 -16.7 °C -17.2 °C 34371.3 hPa Calm     94 % 0 mm
07:37 -16.6 °C -17 °C 34371.3 hPa Calm     95 % 0 mm
07:42 -16.6 °C -17 °C 34384.8 hPa Calm     95 % 0 mm
07:47 -16.6 °C -16.9 °C 34384.8 hPa Calm     95 % 0 mm
07:52 -16.6 °C -16.9 °C 34384.8 hPa Calm     95 % 0 mm
07:57 -16.5 °C -16.9 °C 34384.8 hPa Calm     95 % 0 mm
08:02 -16.5 °C -16.9 °C 34384.8 hPa Calm     95 % 0 mm
08:07 -16.4 °C -16.7 °C 34384.8 hPa Calm     96 % 0 mm
08:12 -16.3 °C -16.6 °C 34384.8 hPa Calm     96 % 0 mm
08:17 -16.2 °C -16.5 °C 34384.8 hPa Calm     96 % 0 mm
08:22 -16 °C -16.3 °C 34384.8 hPa Calm     96 % 0 mm
08:27 -15.8 °C -16.2 °C 34384.8 hPa Calm     96 % 0 mm
08:32 -15.7 °C -16.1 °C 34384.8 hPa Calm   2.6 km/h 95 % 0 mm
08:37 -15.7 °C -16.1 °C 34395 hPa Calm   2.6 km/h 95 % 0 mm
08:42 -15.6 °C -16.1 °C 34395 hPa Calm   2.6 km/h 94 % 0 mm
08:52 -15.3 °C -16 °C 34395 hPa Calm   5.1 km/h 92 % 0 mm
08:57 -15.2 °C -15.9 °C 34395 hPa Calm   5.1 km/h 91 % 0 mm
09:02 -15.1 °C -15.9 °C 34395 hPa Calm   2.6 km/h 90 % 7.62 mm
09:07 -14.8 °C -15.8 °C 34395 hPa NE 7.7 km/h 7.7 km/h 88 % 7.62 mm
09:12 -14.7 °C -15.9 °C 34395 hPa NE 2.6 km/h 10.3 km/h 86 % 7.62 mm
09:17 -14.6 °C -15.8 °C 34395 hPa ENE 2.6 km/h 10.3 km/h 86 % 7.62 mm
09:22 -14.6 °C -16.1 °C 34395 hPa NE 2.6 km/h 10.3 km/h 83 % 7.62 mm
09:27 -14.5 °C -16.1 °C 34395 hPa NE 2.6 km/h 10.3 km/h 82 % 7.62 mm
09:32 -14.2 °C -15.7 °C 34395 hPa Calm   10.3 km/h 83 % 7.62 mm
09:37 -13.9 °C -15.8 °C 34395 hPa Calm   10.3 km/h 79 % 7.62 mm
09:42 -13.7 °C -15.9 °C 34405.1 hPa Calm   5.1 km/h 76 % 7.62 mm
09:52 -13.5 °C -15.6 °C 34405.1 hPa Calm   10.3 km/h 77 % 7.62 mm
09:57 -13.1 °C -15.8 °C 34405.1 hPa NE 5.1 km/h 10.3 km/h 72 % 7.62 mm
10:02 -12.8 °C -15.4 °C 34405.1 hPa NNE 5.1 km/h 10.3 km/h 73 % 0 mm
10:12 -13.2 °C -15.9 °C 34405.1 hPa Calm   12.9 km/h 71 % 0 mm
10:17 -13.1 °C -15.8 °C 34405.1 hPa Calm   12.9 km/h 71 % 0 mm
10:22 -12.7 °C -15.9 °C 34405.1 hPa Calm   12.9 km/h 67 % 0 mm
10:27 -12.8 °C -15.9 °C 34405.1 hPa ENE 5.1 km/h 10.3 km/h 68 % 0 mm
10:32 -12.6 °C -15.5 °C 34405.1 hPa Calm   10.3 km/h 70 % 0 mm
10:37 -12.7 °C -16.1 °C 34405.1 hPa Calm   10.3 km/h 65 % 0 mm
10:42 -12.6 °C -15.9 °C 34405.1 hPa Calm   10.3 km/h 66 % 0 mm
10:47 -12.6 °C -15.9 °C 34418.7 hPa Calm   12.9 km/h 66 % 0 mm
10:52 -12.3 °C -16.1 °C 34405.1 hPa NE 2.6 km/h 12.9 km/h 62 % 0 mm
10:57 -12.1 °C -15.9 °C 34405.1 hPa SW 2.6 km/h 5.1 km/h 62 % 0 mm
11:02 -11.8 °C -15.3 °C 34405.1 hPa West 2.6 km/h 5.1 km/h 65 % 0 mm
11:07 -11.8 °C -15.8 °C 34418.7 hPa ENE 2.6 km/h 7.7 km/h 61 % 0 mm
11:12 -12.2 °C -15.9 °C 34405.1 hPa NE 5.1 km/h 7.7 km/h 63 % 0 mm
11:17 -12.4 °C -16 °C 34418.7 hPa Calm   12.9 km/h 64 % 0 mm
11:22 -12.6 °C -16.2 °C 34418.7 hPa NE 2.6 km/h 12.9 km/h 64 % 0 mm
11:27 -12.3 °C -15.8 °C 34405.1 hPa Calm   10.3 km/h 65 % 0 mm
11:32 -11.8 °C -15 °C 34418.7 hPa Calm   10.3 km/h 68 % 0 mm
11:37 -12 °C -15.9 °C 34418.7 hPa ENE 7.7 km/h 15.6 km/h 62 % 0 mm
11:42 -12.2 °C -16.1 °C 34418.7 hPa Calm   15.6 km/h 62 % 0 mm
11:47 -12.2 °C -16.3 °C 34418.7 hPa Calm   15.6 km/h 60 % 0 mm
11:52 -11.8 °C -16 °C 34418.7 hPa SW 5.1 km/h 15.6 km/h 60 % 0 mm
11:57 -11.6 °C -16.2 °C 34418.7 hPa SW 2.6 km/h 18.2 km/h 57 % 0 mm
12:02 -11.7 °C -16.3 °C 34418.7 hPa ENE 5.1 km/h 18.2 km/h 57 % 0 mm
12:12 -11.9 °C -16.6 °C 34418.7 hPa Calm   18.2 km/h 56 % 0 mm
12:17 -12.2 °C -16.9 °C 34418.7 hPa Calm   18.2 km/h 56 % 0 mm
12:22 -12.4 °C -16.6 °C 34418.7 hPa NE 10.3 km/h 18.2 km/h 60 % 0 mm
12:32 -12.8 °C -16.7 °C 34418.7 hPa Calm   15.6 km/h 62 % 0 mm
12:37 -12.9 °C -17.1 °C 34418.7 hPa Calm   15.6 km/h 59 % 0 mm
12:42 -12.9 °C -16.8 °C 34418.7 hPa Calm   10.3 km/h 61 % 0 mm
12:52 -12.5 °C -16.4 °C 34418.7 hPa Calm   10.3 km/h 61 % 0 mm
12:57 -12.6 °C -16.7 °C 34418.7 hPa Calm   10.3 km/h 60 % 0 mm
13:02 -12.4 °C -16.8 °C 34418.7 hPa Calm   10.3 km/h 58 % 0 mm
13:07 -12.3 °C -16.7 °C 34418.7 hPa NE 2.6 km/h 10.3 km/h 58 % 0 mm
13:12 -12.3 °C -16.7 °C 34418.7 hPa Calm   10.3 km/h 58 % 0 mm
13:17 -12.3 °C -16.5 °C 34418.7 hPa ENE 5.1 km/h 15.6 km/h 59 % 0 mm
13:22 -12.3 °C -16.7 °C 34418.7 hPa Calm   15.6 km/h 58 % 0 mm
13:32 -12.1 °C -16.9 °C 34418.7 hPa Calm   12.9 km/h 55 % 0 mm
13:37 -12.1 °C -16.7 °C 34418.7 hPa Calm   10.3 km/h 56 % 0 mm
13:42 -11.9 °C -16.8 °C 34418.7 hPa Calm   10.3 km/h 55 % 0 mm
13:52 -11.9 °C -16.8 °C 34418.7 hPa ENE 5.1 km/h 7.7 km/h 55 % 0 mm
13:57 -12.2 °C -16.8 °C 34418.7 hPa Calm   15.6 km/h 56 % 0 mm
14:02 -12.2 °C -16.7 °C 34418.7 hPa NNE 2.6 km/h 15.6 km/h 57 % 0 mm
14:07 -12.1 °C -16.2 °C 34418.7 hPa Calm   15.6 km/h 60 % 0 mm
14:12 -12 °C -16.8 °C 34418.7 hPa Calm   15.6 km/h 55 % 0 mm
14:17 -11.9 °C -16.8 °C 34418.7 hPa Calm   12.9 km/h 54 % 0 mm
14:22 -11.9 °C -17 °C 34418.7 hPa Calm   12.9 km/h 53 % 0 mm
14:32 -11.7 °C -16.6 °C 34418.7 hPa NNE 5.1 km/h 7.7 km/h 55 % 0 mm
14:37 -11.7 °C -16.8 °C 34418.7 hPa Calm   10.3 km/h 53 % 0 mm
14:42 -11.6 °C -16.4 °C 34418.7 hPa Calm   10.3 km/h 55 % 0 mm
14:47 -11.7 °C -16.2 °C 34418.7 hPa NE 7.7 km/h 10.3 km/h 57 % 0 mm
14:52 -11.6 °C -15.9 °C 34418.7 hPa Calm   10.3 km/h 59 % 0 mm
14:57 -11.5 °C -16.1 °C 34418.7 hPa Calm   12.9 km/h 57 % 0 mm
15:02 -11.3 °C -16.6 °C 34418.7 hPa West 2.6 km/h 12.9 km/h 52 % 0 mm
15:07 -11.2 °C -16.2 °C 34418.7 hPa NE 5.1 km/h 7.7 km/h 54 % 0 mm
15:12 -11.3 °C -16.5 °C 34418.7 hPa Calm   7.7 km/h 53 % 0 mm
15:17 -11.3 °C -16 °C 34418.7 hPa NE 2.6 km/h 10.3 km/h 56 % 0 mm
15:22 -11.1 °C -16.1 °C 34418.7 hPa Calm   10.3 km/h 54 % 0 mm
15:27 -11.1 °C -16.7 °C 34418.7 hPa Calm   7.7 km/h 50 % 0 mm
15:32 -11.3 °C -17.1 °C 34418.7 hPa Calm   7.7 km/h 49 % 0 mm
15:37 -11.5 °C -16.8 °C 34418.7 hPa Calm   5.1 km/h 52 % 0 mm
15:42 -11.4 °C -16.7 °C 34418.7 hPa Calm   5.1 km/h 52 % 0 mm
15:47 -11.3 °C -16.3 °C 34418.7 hPa SW 5.1 km/h 5.1 km/h 54 % 0 mm
15:52 -11.4 °C -16.4 °C 34418.7 hPa Calm   5.1 km/h 54 % 0 mm
15:57 -11.4 °C -16.6 °C 34418.7 hPa Calm   7.7 km/h 53 % 0 mm
16:07 -11.3 °C -16.1 °C 34418.7 hPa Calm   10.3 km/h 55 % 0 mm
16:12 -11.3 °C -16.6 °C 34418.7 hPa Calm   10.3 km/h 52 % 0 mm
16:17 -11.3 °C -16.5 °C 34405.1 hPa SSW 5.1 km/h 15.6 km/h 53 % 0 mm
16:22 -11.3 °C -16.1 °C 34418.7 hPa Calm   15.6 km/h 55 % 0 mm
16:27 -11.3 °C -16.6 °C 34405.1 hPa SSW 2.6 km/h 5.1 km/h 52 % 0 mm
16:37 -11.2 °C -16.2 °C 34405.1 hPa Calm   5.1 km/h 54 % 0 mm
16:42 -11.2 °C -16.5 °C 34405.1 hPa Calm   5.1 km/h 52 % 0 mm
16:47 -11.2 °C -16.2 °C 34405.1 hPa WSW 2.6 km/h 5.1 km/h 54 % 0 mm
16:52 -11.1 °C -16.3 °C 34405.1 hPa Calm   5.1 km/h 53 % 0 mm
16:57 -10.9 °C -16.5 °C 34405.1 hPa WSW 2.6 km/h 5.1 km/h 50 % 0 mm
17:02 -10.6 °C -16.6 °C 34405.1 hPa Calm   5.1 km/h 48 % 0 mm
17:12 -10.6 °C -16.7 °C 34405.1 hPa South 5.1 km/h 10.3 km/h 47 % 0 mm
17:17 -10.7 °C -17 °C 34405.1 hPa WSW 2.6 km/h 10.3 km/h 46 % 0 mm
17:22 -10.6 °C -16.7 °C 34405.1 hPa Calm   10.3 km/h 47 % 0 mm
17:27 -10.3 °C -16.3 °C 34405.1 hPa WSW 2.6 km/h 10.3 km/h 48 % 0 mm
17:32 -10.1 °C -16.6 °C 34405.1 hPa Calm   10.3 km/h 45 % 0 mm
17:37 -10.1 °C -17 °C 34405.1 hPa SW 5.1 km/h 10.3 km/h 43 % 0 mm
17:42 -10.2 °C -16.5 °C 34405.1 hPa WSW 10.3 km/h 10.3 km/h 46 % 0 mm
17:47 -10.1 °C -16.6 °C 34405.1 hPa SE 2.6 km/h 10.3 km/h 45 % 0 mm
17:52 -9.9 °C -16.6 °C 34405.1 hPa WSW 5.1 km/h 10.3 km/h 44 % 0 mm
17:57 -9.9 °C -16.7 °C 34405.1 hPa SW 2.6 km/h 10.3 km/h 44 % 0 mm
18:02 -10.4 °C -16.9 °C 34405.1 hPa WSW 2.6 km/h 10.3 km/h 45 % 0 mm
18:12 -10.9 °C -16.9 °C 34418.7 hPa Calm   10.3 km/h 48 % 0 mm
18:17 -11.1 °C -16.8 °C 34405.1 hPa Calm   10.3 km/h 49 % 0 mm
18:22 -11.2 °C -17.2 °C 34418.7 hPa Calm     48 % 0 mm
18:27 -11.2 °C -16.9 °C 34405.1 hPa Calm     49 % 0 mm
18:32 -11.3 °C -16.2 °C 34405.1 hPa NE 2.6 km/h 7.7 km/h 55 % 0 mm
18:42 -11.7 °C -16.4 °C 34405.1 hPa Calm   7.7 km/h 56 % 0 mm
18:47 -11.8 °C -16.4 °C 34418.7 hPa Calm   7.7 km/h 57 % 0 mm
18:57 -12.1 °C -16.6 °C 34418.7 hPa NNE 2.6 km/h 5.1 km/h 57 % 0 mm
19:02 -12.1 °C -16.9 °C 34418.7 hPa NE 2.6 km/h 5.1 km/h 55 % 0 mm
19:07 -12.2 °C -16.4 °C 34418.7 hPa Calm   10.3 km/h 59 % 0 mm
19:12 -12.2 °C -16.6 °C 34418.7 hPa ENE 2.6 km/h 10.3 km/h 58 % 0 mm
19:17 -12.3 °C -16.4 °C 34418.7 hPa Calm   5.1 km/h 60 % 0 mm
19:22 -12.3 °C -16.9 °C 34418.7 hPa NE 2.6 km/h 5.1 km/h 56 % 0 mm
19:32 -12.2 °C -16.4 °C 34418.7 hPa Calm   5.1 km/h 59 % 0 mm
19:37 -12.2 °C -16.6 °C 34418.7 hPa Calm   2.6 km/h 58 % 0 mm
19:47 -12.2 °C -16.4 °C 34418.7 hPa Calm     59 % 0 mm
19:52 -12.2 °C -16.6 °C 34418.7 hPa Calm     58 % 0 mm
19:57 -12.2 °C -16.1 °C 34418.7 hPa Calm     62 % 0 mm
20:02 -12.3 °C -15.8 °C 34418.7 hPa Calm     65 % 0 mm
20:07 -12.3 °C -15.7 °C 34418.7 hPa Calm   2.6 km/h 66 % 0 mm
20:17 -12.4 °C -15.8 °C 34418.7 hPa Calm     66 % 0 mm
20:22 -12.4 °C -15.2 °C 34418.7 hPa Calm     71 % 0 mm
20:27 -12.6 °C -15 °C 34418.7 hPa Calm     74 % 0 mm
20:32 -12.7 °C -15.3 °C 34418.7 hPa Calm     73 % 0 mm
20:37 -12.8 °C -15.3 °C 34418.7 hPa Calm     74 % 0 mm
20:42 -12.9 °C -15.1 °C 34418.7 hPa Calm     76 % 0 mm
20:52 -12.9 °C -14.9 °C 34418.7 hPa Calm     78 % 0 mm
20:57 -13.1 °C -15.3 °C 34418.7 hPa Calm     76 % 0 mm
21:02 -13.1 °C -15 °C 34428.8 hPa Calm     79 % 0 mm
21:07 -13.2 °C -15.2 °C 34428.8 hPa Calm     78 % 0 mm
21:12 -13.3 °C -15.1 °C 34428.8 hPa Calm     80 % 0 mm
21:22 -13.4 °C -15.3 °C 34428.8 hPa Calm     79 % 0 mm
21:27 -13.5 °C -15.3 °C 34428.8 hPa Calm     80 % 0 mm
21:37 -13.6 °C -15.2 °C 34428.8 hPa Calm     82 % 0 mm
21:42 -13.7 °C -15.3 °C 34442.4 hPa Calm     81 % 0 mm
21:52 -13.8 °C -15.4 °C 34442.4 hPa Calm     81 % 0 mm
21:57 -13.8 °C -15.4 °C 34442.4 hPa Calm     82 % 0 mm
22:02 -13.8 °C -15.4 °C 34442.4 hPa Calm     82 % 0 mm
22:07 -13.8 °C -15.4 °C 34442.4 hPa Calm     82 % 0 mm
22:12 -13.8 °C -15.3 °C 34442.4 hPa Calm     83 % 0 mm
22:17 -13.9 °C -15.4 °C 34442.4 hPa Calm     83 % 0 mm
22:22 -13.9 °C -15.3 °C 34442.4 hPa Calm     84 % 0 mm
22:27 -14 °C -15.4 °C 34442.4 hPa Calm     84 % 0 mm
22:32 -14.1 °C -15.4 °C 34442.4 hPa Calm     84 % 0 mm
22:37 -14.1 °C -15.4 °C 34442.4 hPa Calm     84 % 0 mm
22:42 -14.1 °C -15.5 °C 34442.4 hPa Calm     84 % 0 mm
22:47 -14.2 °C -15.5 °C 34452.6 hPa Calm     85 % 0 mm
22:52 -14.2 °C -15.5 °C 34442.4 hPa Calm     85 % 0 mm
22:57 -14.3 °C -15.5 °C 34452.6 hPa Calm     86 % 0 mm
23:02 -14.3 °C -15.6 °C 34442.4 hPa Calm     86 % 0 mm
23:07 -14.3 °C -15.4 °C 34442.4 hPa Calm     87 % 0 mm
23:12 -14.3 °C -15.3 °C 34442.4 hPa Calm     88 % 0 mm
23:17 -14.3 °C -15.3 °C 34442.4 hPa Calm     88 % 0 mm
23:22 -14.4 °C -15.4 °C 34442.4 hPa Calm     88 % 0 mm
23:27 -14.4 °C -15.4 °C 34442.4 hPa Calm     88 % 0 mm
23:32 -14.6 °C -15.6 °C 34442.4 hPa Calm     88 % 0 mm
23:37 -14.6 °C -15.6 °C 34442.4 hPa Calm     88 % 0 mm
23:42 -14.7 °C -15.7 °C 34442.4 hPa Calm     88 % 0 mm
23:47 -14.8 °C -15.8 °C 34442.4 hPa Calm     88 % 0 mm
23:52 -14.8 °C -15.7 °C 34442.4 hPa Calm     89 % 0 mm
23:57 -14.8 °C -15.7 °C 34442.4 hPa Calm     89 % 0 mm
Meteo18
Compliments of Weather Underground - 4 mb

Script developed by  Jim McMurry - jmcmurry@mwt.net Adapted for the template by  Wim van der Kuil - Leuven-Template.eu

You find our weather info also at:

European Weather Network

Weather Underground

Equipment we use:

Weather-station
Davis Vue

Weather-program
Meteobridge

Weather-server
Raspberry PI 2 B+

Provider
1 and 1

Davis Vue

Meteobridge

Raspberry PI 2 B+

1 and 1